sensor_id;sensor_type;location;lat;lon;timestamp;pressure;altitude;pressure_sealevel;temperature;humidity
29371;BME280;16357;52.188;7.838;2022-09-13T00:01:47;100297.72;;;21.02;49.45
29371;BME280;16357;52.188;7.838;2022-09-13T00:04:14;100286.81;;;21.02;49.46
29371;BME280;16357;52.188;7.838;2022-09-13T00:06:40;100301.28;;;21.03;49.17
29371;BME280;16357;52.188;7.838;2022-09-13T00:09:07;100295.00;;;21.02;49.28
29371;BME280;16357;52.188;7.838;2022-09-13T00:11:33;100278.63;;;21.02;49.38
29371;BME280;16357;52.188;7.838;2022-09-13T00:14:01;100284.09;;;21.02;49.29
29371;BME280;16357;52.188;7.838;2022-09-13T00:16:28;100283.28;;;21.02;49.35
29371;BME280;16357;52.188;7.838;2022-09-13T00:18:55;100283.28;;;21.02;49.54
29371;BME280;16357;52.188;7.838;2022-09-13T00:21:22;100286.00;;;21.02;49.26
29371;BME280;16357;52.188;7.838;2022-09-13T00:23:51;100285.16;;;21.01;49.24
29371;BME280;16357;52.188;7.838;2022-09-13T00:26:21;100279.25;;;21.04;49.56
29371;BME280;16357;52.188;7.838;2022-09-13T00:28:50;100278.41;;;21.04;49.39
29371;BME280;16357;52.188;7.838;2022-09-13T00:31:17;100276.50;;;21.04;49.59
29371;BME280;16357;52.188;7.838;2022-09-13T00:33:44;100267.25;;;21.05;49.58
29371;BME280;16357;52.188;7.838;2022-09-13T00:36:11;100263.47;;;21.07;49.53
29371;BME280;16357;52.188;7.838;2022-09-13T00:38:38;100257.75;;;21.08;49.35
29371;BME280;16357;52.188;7.838;2022-09-13T00:41:07;100260.25;;;21.10;49.14
29371;BME280;16357;52.188;7.838;2022-09-13T00:43:56;100254.31;;;21.13;49.13
29371;BME280;16357;52.188;7.838;2022-09-13T00:46:25;100252.41;;;21.13;49.11
29371;BME280;16357;52.188;7.838;2022-09-13T00:49:16;100254.66;;;21.16;49.03
29371;BME280;16357;52.188;7.838;2022-09-13T00:51:51;100241.84;;;21.17;48.97
29371;BME280;16357;52.188;7.838;2022-09-13T00:54:22;100245.19;;;21.19;49.01
29371;BME280;16357;52.188;7.838;2022-09-13T00:56:54;100240.56;;;21.19;48.91
29371;BME280;16357;52.188;7.838;2022-09-13T00:59:27;100239.50;;;21.20;48.97
29371;BME280;16357;52.188;7.838;2022-09-13T01:01:56;100240.56;;;21.19;49.03
29371;BME280;16357;52.188;7.838;2022-09-13T01:04:25;100236.78;;;21.20;49.04
29371;BME280;16357;52.188;7.838;2022-09-13T01:06:55;100232.38;;;21.19;49.03
29371;BME280;16357;52.188;7.838;2022-09-13T01:09:25;100237.00;;;21.19;49.21
29371;BME280;16357;52.188;7.838;2022-09-13T01:11:56;100231.53;;;21.19;49.25
29371;BME280;16357;52.188;7.838;2022-09-13T01:14:26;100226.91;;;21.19;49.28
29371;BME280;16357;52.188;7.838;2022-09-13T01:16:53;100226.09;;;21.19;49.19
29371;BME280;16357;52.188;7.838;2022-09-13T01:19:19;100226.91;;;21.19;49.17
29371;BME280;16357;52.188;7.838;2022-09-13T01:22:01;100226.69;;;21.21;49.21
29371;BME280;16357;52.188;7.838;2022-09-13T01:35:40;100234.38;;;21.24;49.23
29371;BME280;16357;52.188;7.838;2022-09-13T01:44:11;100222.66;;;21.23;49.63
29371;BME280;16357;52.188;7.838;2022-09-13T01:49:24;100216.59;;;21.21;50.17
29371;BME280;16357;52.188;7.838;2022-09-13T01:52:29;100217.69;;;21.20;49.76
29371;BME280;16357;52.188;7.838;2022-09-13T01:55:07;100220.63;;;21.19;50.01
29371;BME280;16357;52.188;7.838;2022-09-13T01:57:59;100230.72;;;21.18;49.89
29371;BME280;16357;52.188;7.838;2022-09-13T02:00:32;100217.31;;;21.17;50.31
29371;BME280;16357;52.188;7.838;2022-09-13T02:05:39;100224.91;;;21.15;50.35
29371;BME280;16357;52.188;7.838;2022-09-13T02:08:12;100226.56;;;21.16;50.54
29371;BME280;16357;52.188;7.838;2022-09-13T02:10:45;100224.06;;;21.14;50.49
29371;BME280;16357;52.188;7.838;2022-09-13T02:13:18;100211.50;;;21.13;50.44
29371;BME280;16357;52.188;7.838;2022-09-13T02:15:47;100214.50;;;21.12;50.68
29371;BME280;16357;52.188;7.838;2022-09-13T02:18:26;100209.03;;;21.12;50.85
29371;BME280;16357;52.188;7.838;2022-09-13T02:20:57;100203.59;;;21.12;51.54
29371;BME280;16357;52.188;7.838;2022-09-13T02:23:32;100198.13;;;21.12;51.58
29371;BME280;16357;52.188;7.838;2022-09-13T02:26:02;100198.13;;;21.12;51.52
29371;BME280;16357;52.188;7.838;2022-09-13T02:28:34;100204.63;;;21.11;51.50
29371;BME280;16357;52.188;7.838;2022-09-13T02:31:03;100202.97;;;21.10;51.73
29371;BME280;16357;52.188;7.838;2022-09-13T02:33:37;100202.16;;;21.09;51.67
29371;BME280;16357;52.188;7.838;2022-09-13T02:36:08;100198.56;;;21.09;51.93
29371;BME280;16357;52.188;7.838;2022-09-13T02:38:49;100205.13;;;21.08;52.05
29371;BME280;16357;52.188;7.838;2022-09-13T02:41:41;100211.41;;;21.08;51.72
29371;BME280;16357;52.188;7.838;2022-09-13T02:44:17;100207.03;;;21.07;51.87
29371;BME280;16357;52.188;7.838;2022-09-13T02:47:12;100216.25;;;21.06;51.86
29371;BME280;16357;52.188;7.838;2022-09-13T02:49:56;100214.81;;;21.03;52.34
29371;BME280;16357;52.188;7.838;2022-09-13T02:55:14;100206.31;;;21.00;52.26
29371;BME280;16357;52.188;7.838;2022-09-13T02:57:51;100203.22;;;20.96;52.55
29371;BME280;16357;52.188;7.838;2022-09-13T03:00:20;100203.94;;;20.92;52.86
29371;BME280;16357;52.188;7.838;2022-09-13T03:02:47;100219.97;;;20.88;52.75
29371;BME280;16357;52.188;7.838;2022-09-13T03:05:15;100219.84;;;20.83;52.75
29371;BME280;16357;52.188;7.838;2022-09-13T03:07:42;100220.53;;;20.78;53.14
29371;BME280;16357;52.188;7.838;2022-09-13T03:10:11;100220.19;;;20.75;53.20
29371;BME280;16357;52.188;7.838;2022-09-13T03:35:43;100194.22;;;20.60;53.86
29371;BME280;16357;52.188;7.838;2022-09-13T03:38:16;100198.00;;;20.59;53.97
29371;BME280;16357;52.188;7.838;2022-09-13T03:40:51;100204.50;;;20.58;53.56
29371;BME280;16357;52.188;7.838;2022-09-13T03:43:24;100202.88;;;20.57;53.58
29371;BME280;16357;52.188;7.838;2022-09-13T03:45:55;100197.63;;;20.56;53.86
29371;BME280;16357;52.188;7.838;2022-09-13T03:48:24;100191.63;;;20.54;53.63
29371;BME280;16357;52.188;7.838;2022-09-13T03:50:52;100190.72;;;20.53;53.70
29371;BME280;16357;52.188;7.838;2022-09-13T03:53:22;100202.25;;;20.55;53.41
29371;BME280;16357;52.188;7.838;2022-09-13T03:55:50;100199.97;;;20.52;53.38
29371;BME280;16357;52.188;7.838;2022-09-13T03:58:18;100193.72;;;20.52;53.45
29371;BME280;16357;52.188;7.838;2022-09-13T04:00:45;100202.72;;;20.52;53.67
29371;BME280;16357;52.188;7.838;2022-09-13T04:03:12;100197.25;;;20.52;53.63
29371;BME280;16357;52.188;7.838;2022-09-13T04:05:39;100196.44;;;20.52;53.59
29371;BME280;16357;52.188;7.838;2022-09-13T04:08:06;100204.59;;;20.52;53.70
29371;BME280;16357;52.188;7.838;2022-09-13T04:10:35;100200.81;;;20.53;53.73
29371;BME280;16357;52.188;7.838;2022-09-13T04:13:03;100202.53;;;20.54;53.61
29371;BME280;16357;52.188;7.838;2022-09-13T04:15:30;100196.00;;;20.55;53.77
29371;BME280;16357;52.188;7.838;2022-09-13T04:17:57;100199.53;;;20.55;53.86
29371;BME280;16357;52.188;7.838;2022-09-13T04:20:23;100199.53;;;20.55;54.00
29371;BME280;16357;52.188;7.838;2022-09-13T04:22:55;100201.22;;;20.56;53.70
29371;BME280;16357;52.188;7.838;2022-09-13T04:25:22;100209.41;;;20.56;53.99
29371;BME280;16357;52.188;7.838;2022-09-13T04:27:55;100197.41;;;20.57;53.37
29371;BME280;16357;52.188;7.838;2022-09-13T04:30:23;100206.66;;;20.56;53.28
29371;BME280;16357;52.188;7.838;2022-09-13T04:32:50;100194.91;;;20.56;53.48
29371;BME280;16357;52.188;7.838;2022-09-13T04:35:17;100202.88;;;20.57;53.63
29371;BME280;16357;52.188;7.838;2022-09-13T04:37:45;100193.88;;;20.57;53.59
29371;BME280;16357;52.188;7.838;2022-09-13T04:40:11;100194.91;;;20.56;53.67
29371;BME280;16357;52.188;7.838;2022-09-13T04:42:39;100194.09;;;20.55;53.69
29371;BME280;16357;52.188;7.838;2022-09-13T04:45:05;100189.72;;;20.54;53.52
29371;BME280;16357;52.188;7.838;2022-09-13T04:47:32;100191.63;;;20.54;53.37
29371;BME280;16357;52.188;7.838;2022-09-13T04:49:58;100194.34;;;20.54;53.73
29371;BME280;16357;52.188;7.838;2022-09-13T04:52:25;100195.34;;;20.53;53.47
29371;BME280;16357;52.188;7.838;2022-09-13T04:54:51;100194.53;;;20.52;53.48
29371;BME280;16357;52.188;7.838;2022-09-13T04:57:17;100195.59;;;20.51;53.46
29371;BME280;16357;52.188;7.838;2022-09-13T04:59:44;100192.88;;;20.51;53.75
29371;BME280;16357;52.188;7.838;2022-09-13T05:02:10;100194.75;;;20.51;53.66
29371;BME280;16357;52.188;7.838;2022-09-13T05:04:37;100187.44;;;20.51;53.76
29371;BME280;16357;52.188;7.838;2022-09-13T05:07:03;100192.88;;;20.51;54.14
29371;BME280;16357;52.188;7.838;2022-09-13T05:09:30;100195.34;;;20.53;54.05
29371;BME280;16357;52.188;7.838;2022-09-13T05:11:56;100191.81;;;20.52;54.26
29371;BME280;16357;52.188;7.838;2022-09-13T05:14:23;100197.88;;;20.54;54.08
29371;BME280;16357;52.188;7.838;2022-09-13T05:16:49;100199.53;;;20.55;54.08
29371;BME280;16357;52.188;7.838;2022-09-13T05:19:16;100201.22;;;20.56;54.37
29371;BME280;16357;52.188;7.838;2022-09-13T05:21:42;100203.69;;;20.58;54.66
29371;BME280;16357;52.188;7.838;2022-09-13T05:24:09;100198.00;;;20.59;54.08
29371;BME280;16357;52.188;7.838;2022-09-13T05:26:35;100205.13;;;20.60;54.21
29371;BME280;16357;52.188;7.838;2022-09-13T05:29:03;100204.88;;;20.62;54.09
29371;BME280;16357;52.188;7.838;2022-09-13T05:31:34;100210.69;;;20.66;53.77
29371;BME280;16357;52.188;7.838;2022-09-13T05:34:07;100206.88;;;20.67;53.94
29371;BME280;16357;52.188;7.838;2022-09-13T05:36:36;100200.38;;;20.68;53.91
29371;BME280;16357;52.188;7.838;2022-09-13T05:39:03;100202.63;;;20.71;54.20
29371;BME280;16357;52.188;7.838;2022-09-13T05:41:50;100201.56;;;20.72;53.96
29371;BME280;16357;52.188;7.838;2022-09-13T05:44:16;100200.50;;;20.73;53.83
29371;BME280;16357;52.188;7.838;2022-09-13T05:46:45;100209.50;;;20.73;53.67
29371;BME280;16357;52.188;7.838;2022-09-13T05:49:13;100208.44;;;20.74;53.80
29371;BME280;16357;52.188;7.838;2022-09-13T05:51:39;100212.00;;;20.75;54.01
29371;BME280;16357;52.188;7.838;2022-09-13T05:54:06;100214.47;;;20.76;54.41
29371;BME280;16357;52.188;7.838;2022-09-13T05:56:32;100210.47;;;20.79;54.23
29371;BME280;16357;52.188;7.838;2022-09-13T05:58:59;100207.50;;;20.80;54.01
29371;BME280;16357;52.188;7.838;2022-09-13T06:01:27;100209.75;;;20.83;53.95
29371;BME280;16357;52.188;7.838;2022-09-13T06:03:55;100212.00;;;20.87;54.13
29371;BME280;16357;52.188;7.838;2022-09-13T06:06:23;100223.25;;;20.90;53.85
29371;BME280;16357;52.188;7.838;2022-09-13T06:08:54;100222.81;;;20.93;53.96
29371;BME280;16357;52.188;7.838;2022-09-13T06:11:21;100227.78;;;20.96;54.04
29371;BME280;16357;52.188;7.838;2022-09-13T06:13:49;100231.66;;;21.00;54.05
29371;BME280;16357;52.188;7.838;2022-09-13T06:16:15;100232.03;;;21.04;54.06
29371;BME280;16357;52.188;7.838;2022-09-13T06:18:43;100225.84;;;21.09;54.23
29371;BME280;16357;52.188;7.838;2022-09-13T06:21:15;100222.69;;;21.12;53.84
29371;BME280;16357;52.188;7.838;2022-09-13T06:23:48;100214.84;;;21.15;53.73
29371;BME280;16357;52.188;7.838;2022-09-13T06:26:18;100217.69;;;21.20;53.73
29371;BME280;16357;52.188;7.838;2022-09-13T06:28:52;100220.25;;;21.27;53.63
29371;BME280;16357;52.188;7.838;2022-09-13T06:31:21;100222.75;;;21.29;53.64
29371;BME280;16357;52.188;7.838;2022-09-13T06:33:54;100219.06;;;21.35;53.47
29371;BME280;16357;52.188;7.838;2022-09-13T06:36:22;100217.75;;;21.37;53.71
29371;BME280;16357;52.188;7.838;2022-09-13T06:38:49;100224.16;;;21.43;53.85
29371;BME280;16357;52.188;7.838;2022-09-13T06:41:17;100218.00;;;21.47;53.83
29371;BME280;16357;52.188;7.838;2022-09-13T06:43:45;100225.47;;;21.52;53.59
29371;BME280;16357;52.188;7.838;2022-09-13T06:46:15;100222.84;;;21.57;53.29
29371;BME280;16357;52.188;7.838;2022-09-13T06:48:49;100231.47;;;21.66;53.03
29371;BME280;16357;52.188;7.838;2022-09-13T06:51:17;100221.75;;;21.70;53.08
29371;BME280;16357;52.188;7.838;2022-09-13T06:53:46;100224.81;;;21.74;52.89
29371;BME280;16357;52.188;7.838;2022-09-13T06:58:46;100221.09;;;21.80;52.86
29371;BME280;16357;52.188;7.838;2022-09-13T07:01:19;100222.06;;;21.85;52.77
29371;BME280;16357;52.188;7.838;2022-09-13T07:03:51;100222.13;;;21.90;52.83
29371;BME280;16357;52.188;7.838;2022-09-13T07:06:20;100228.75;;;21.95;52.74
29371;BME280;16357;52.188;7.838;2022-09-13T07:08:49;100224.47;;;21.99;52.84
29371;BME280;16357;52.188;7.838;2022-09-13T07:11:18;100222.91;;;22.03;52.33
29371;BME280;16357;52.188;7.838;2022-09-13T07:13:52;100236.44;;;22.09;52.44
29371;BME280;16357;52.188;7.838;2022-09-13T07:16:20;100232.94;;;22.14;52.46
29371;BME280;16357;52.188;7.838;2022-09-13T07:18:55;100237.47;;;22.20;52.11
29371;BME280;16357;52.188;7.838;2022-09-13T07:21:22;100234.25;;;22.23;52.24
29371;BME280;16357;52.188;7.838;2022-09-13T07:23:50;100236.47;;;22.26;52.04
29371;BME280;16357;52.188;7.838;2022-09-13T07:26:17;100234.06;;;22.30;51.97
29371;BME280;16357;52.188;7.838;2022-09-13T07:28:45;100233.00;;;22.31;51.94
29371;BME280;16357;52.188;7.838;2022-09-13T07:31:24;100237.75;;;22.35;51.97
29371;BME280;16357;52.188;7.838;2022-09-13T07:34:04;100239.16;;;22.38;51.55
29371;BME280;16357;52.188;7.838;2022-09-13T07:36:32;100236.16;;;22.40;51.63
29371;BME280;16357;52.188;7.838;2022-09-13T07:39:00;100244.13;;;22.41;51.80
29371;BME280;16357;52.188;7.838;2022-09-13T07:41:27;100245.19;;;22.40;51.99
29371;BME280;16357;52.188;7.838;2022-09-13T07:43:54;100255.88;;;22.42;51.85
29371;BME280;16357;52.188;7.838;2022-09-13T07:46:24;100251.25;;;22.42;52.04
29371;BME280;16357;52.188;7.838;2022-09-13T07:48:54;100251.00;;;22.44;52.12
29371;BME280;16357;52.188;7.838;2022-09-13T07:51:29;100248.84;;;22.46;52.03
29371;BME280;16357;52.188;7.838;2022-09-13T07:54:00;100247.78;;;22.47;52.11
29371;BME280;16357;52.188;7.838;2022-09-13T07:56:29;100250.25;;;22.48;52.09
29371;BME280;16357;52.188;7.838;2022-09-13T07:58:58;100247.03;;;22.51;52.04
29371;BME280;16357;52.188;7.838;2022-09-13T08:01:28;100251.19;;;22.54;51.81
29371;BME280;16357;52.188;7.838;2022-09-13T08:04:00;100255.06;;;22.58;51.93
29371;BME280;16357;52.188;7.838;2022-09-13T08:06:29;100253.16;;;22.58;51.81
29371;BME280;16357;52.188;7.838;2022-09-13T08:08:56;100252.91;;;22.60;51.75
29371;BME280;16357;52.188;7.838;2022-09-13T08:11:32;100254.06;;;22.64;51.98
29371;BME280;16357;52.188;7.838;2022-09-13T08:13:59;100258.47;;;22.65;52.20
29371;BME280;16357;52.188;7.838;2022-09-13T08:16:27;100254.66;;;22.66;51.77
29371;BME280;16357;52.188;7.838;2022-09-13T08:18:56;100257.75;;;22.70;51.99
29371;BME280;16357;52.188;7.838;2022-09-13T08:21:24;100259.16;;;22.72;51.88
29371;BME280;16357;52.188;7.838;2022-09-13T08:23:56;100265.75;;;22.76;51.91
29371;BME280;16357;52.188;7.838;2022-09-13T08:26:30;100267.16;;;22.79;51.79
29371;BME280;16357;52.188;7.838;2022-09-13T08:28:58;100270.50;;;22.81;51.99
29371;BME280;16357;52.188;7.838;2022-09-13T08:31:26;100270.81;;;22.85;52.08
29371;BME280;16357;52.188;7.838;2022-09-13T08:33:53;100264.84;;;22.88;51.91
29371;BME280;16357;52.188;7.838;2022-09-13T08:36:21;100271.47;;;22.92;52.13
29371;BME280;16357;52.188;7.838;2022-09-13T08:38:57;100276.78;;;22.98;51.78
29371;BME280;16357;52.188;7.838;2022-09-13T08:44:33;100266.34;;;23.12;51.60
29371;BME280;16357;52.188;7.838;2022-09-13T08:47:14;100268.06;;;23.18;51.78
29371;BME280;16357;52.188;7.838;2022-09-13T08:49:45;100269.78;;;23.25;51.31
29371;BME280;16357;52.188;7.838;2022-09-13T08:54:40;100268.88;;;23.36;51.34
29371;BME280;16357;52.188;7.838;2022-09-13T08:57:16;100270.59;;;23.42;51.18
29371;BME280;16357;52.188;7.838;2022-09-13T09:02:41;100264.16;;;23.53;51.45
29371;BME280;16357;52.188;7.838;2022-09-13T09:07:44;100260.28;;;23.71;51.44
29371;BME280;16357;52.188;7.838;2022-09-13T09:10:21;100257.72;;;23.81;51.17
29371;BME280;16357;52.188;7.838;2022-09-13T09:12:54;100264.66;;;23.89;51.33
29371;BME280;16357;52.188;7.838;2022-09-13T09:15:23;100270.25;;;23.99;51.36
29371;BME280;16357;52.188;7.838;2022-09-13T09:18:02;100268.97;;;24.07;50.94
29371;BME280;16357;52.188;7.838;2022-09-13T09:20:40;100271.50;;;24.14;50.81
29371;BME280;16357;52.188;7.838;2022-09-13T09:23:15;100272.38;;;24.19;50.73
29371;BME280;16357;52.188;7.838;2022-09-13T09:25:49;100272.13;;;24.21;50.85
29371;BME280;16357;52.188;7.838;2022-09-13T09:28:17;100279.81;;;24.24;50.91
29371;BME280;16357;52.188;7.838;2022-09-13T09:31:38;100278.47;;;24.26;50.37
29371;BME280;16357;52.188;7.838;2022-09-13T09:36:44;100265.53;;;24.22;50.39
29371;BME280;16357;52.188;7.838;2022-09-13T09:39:16;100274.28;;;24.19;51.07
29371;BME280;16357;52.188;7.838;2022-09-13T09:41:43;100271.81;;;24.17;50.79
29371;BME280;16357;52.188;7.838;2022-09-13T09:44:19;100271.81;;;24.17;51.17
29371;BME280;16357;52.188;7.838;2022-09-13T09:47:16;100270.47;;;24.20;51.51
29371;BME280;16357;52.188;7.838;2022-09-13T09:50:10;100273.75;;;24.22;51.30
29371;BME280;16357;52.188;7.838;2022-09-13T09:55:43;100264.00;;;24.31;51.77
29371;BME280;16357;52.188;7.838;2022-09-13T09:58:11;100267.63;;;24.37;51.34
29371;BME280;16357;52.188;7.838;2022-09-13T10:00:56;100271.56;;;24.46;51.62
29371;BME280;16357;52.188;7.838;2022-09-13T10:03:28;100264.22;;;24.51;51.53
29371;BME280;16357;52.188;7.838;2022-09-13T10:06:10;100259.34;;;24.59;51.43
29371;BME280;16357;52.188;7.838;2022-09-13T10:08:40;100258.03;;;24.66;51.48
29371;BME280;16357;52.188;7.838;2022-09-13T10:11:08;100266.88;;;24.73;51.51
29371;BME280;16357;52.188;7.838;2022-09-13T10:13:35;100258.41;;;24.80;51.30
29371;BME280;16357;52.188;7.838;2022-09-13T10:16:04;100262.03;;;24.86;51.13
29371;BME280;16357;52.188;7.838;2022-09-13T10:18:33;100262.34;;;24.89;51.09
29371;BME280;16357;52.188;7.838;2022-09-13T10:23:44;100259.34;;;24.96;50.69
29371;BME280;16357;52.188;7.838;2022-09-13T10:26:15;100267.91;;;25.00;50.97
29371;BME280;16357;52.188;7.838;2022-09-13T10:31:17;100255.03;;;25.05;50.74
29371;BME280;16357;52.188;7.838;2022-09-13T10:33:58;100262.19;;;25.11;50.87
29371;BME280;16357;52.188;7.838;2022-09-13T10:36:36;100245.53;;;25.18;50.51
29371;BME280;16357;52.188;7.838;2022-09-13T10:39:21;100256.03;;;25.26;50.49
29371;BME280;16357;52.188;7.838;2022-09-13T10:41:51;100254.41;;;25.35;50.13
29371;BME280;16357;52.188;7.838;2022-09-13T10:44:38;100247.59;;;25.43;49.73
29371;BME280;16357;52.188;7.838;2022-09-13T10:47:10;100247.34;;;25.50;49.64
29371;BME280;16357;52.188;7.838;2022-09-13T10:52:42;100239.69;;;25.57;48.97
29371;BME280;16357;52.188;7.838;2022-09-13T10:57:41;100252.34;;;25.58;49.36
29371;BME280;16357;52.188;7.838;2022-09-13T11:00:11;100250.16;;;25.60;49.08
29371;BME280;16357;52.188;7.838;2022-09-13T11:08:59;100246.09;;;25.78;49.31
29371;BME280;16357;52.188;7.838;2022-09-13T11:11:51;100254.38;;;25.83;48.47
29371;BME280;16357;52.188;7.838;2022-09-13T11:17:19;100248.66;;;25.95;48.76
29371;BME280;16357;52.188;7.838;2022-09-13T11:20:17;100248.66;;;26.00;48.53
29371;BME280;16357;52.188;7.838;2022-09-13T11:25:45;100244.81;;;26.06;48.15
29371;BME280;16357;52.188;7.838;2022-09-13T11:28:24;100242.06;;;26.11;48.37
29371;BME280;16357;52.188;7.838;2022-09-13T11:35:13;100247.03;;;26.14;47.77
29371;BME280;16357;52.188;7.838;2022-09-13T11:48:24;100242.63;;;26.13;47.75
29371;BME280;16357;52.188;7.838;2022-09-13T11:53:48;100236.88;;;26.10;47.49
29371;BME280;16357;52.188;7.838;2022-09-13T11:56:26;100237.94;;;26.03;47.32
29371;BME280;16357;52.188;7.838;2022-09-13T11:58:59;100231.03;;;25.96;47.20
29371;BME280;16357;52.188;7.838;2022-09-13T12:01:40;100237.34;;;25.86;47.78
29371;BME280;16357;52.188;7.838;2022-09-13T12:04:12;100231.50;;;25.77;47.46
29371;BME280;16357;52.188;7.838;2022-09-13T12:06:51;100232.59;;;25.71;48.51
29371;BME280;16357;52.188;7.838;2022-09-13T12:09:24;100236.44;;;25.65;48.00
29371;BME280;16357;52.188;7.838;2022-09-13T12:11:57;100230.63;;;25.61;48.30
29371;BME280;16357;52.188;7.838;2022-09-13T12:14:35;100230.63;;;25.61;48.09
29371;BME280;16357;52.188;7.838;2022-09-13T12:17:21;100229.56;;;25.62;47.83
29371;BME280;16357;52.188;7.838;2022-09-13T12:19:49;100224.91;;;25.68;48.22
29371;BME280;16357;52.188;7.838;2022-09-13T12:22:22;100222.72;;;25.70;47.96
29371;BME280;16357;52.188;7.838;2022-09-13T12:24:57;100216.38;;;25.75;48.36
29371;BME280;16357;52.188;7.838;2022-09-13T12:27:38;100220.50;;;25.77;47.62
29371;BME280;16357;52.188;7.838;2022-09-13T12:32:43;100218.91;;;25.81;47.23
29371;BME280;16357;52.188;7.838;2022-09-13T12:35:27;100217.00;;;25.87;47.31
29371;BME280;16357;52.188;7.838;2022-09-13T12:38:21;100212.91;;;25.95;47.59
29371;BME280;16357;52.188;7.838;2022-09-13T12:44:13;100197.53;;;26.09;46.62
29371;BME280;16357;52.188;7.838;2022-09-13T13:00:25;100181.31;;;26.43;45.33
29371;BME280;16357;52.188;7.838;2022-09-13T13:05:27;100175.03;;;26.53;44.86
29371;BME280;16357;52.188;7.838;2022-09-13T13:08:02;100179.97;;;26.61;44.04
29371;BME280;16357;52.188;7.838;2022-09-13T13:10:31;100180.78;;;26.67;44.11
29371;BME280;16357;52.188;7.838;2022-09-13T13:13:09;100172.53;;;26.72;43.47
29371;BME280;16357;52.188;7.838;2022-09-13T13:18:29;100180.50;;;26.84;43.30
29371;BME280;16357;52.188;7.838;2022-09-13T13:23:34;100171.66;;;26.92;42.81
29371;BME280;16357;52.188;7.838;2022-09-13T13:26:06;100168.09;;;26.97;42.66
29371;BME280;16357;52.188;7.838;2022-09-13T13:33:51;100161.66;;;27.17;42.13
29371;BME280;16357;52.188;7.838;2022-09-13T13:36:30;100173.47;;;27.32;42.19
29371;BME280;16357;52.188;7.838;2022-09-13T13:39:00;100177.00;;;27.48;41.94
29371;BME280;16357;52.188;7.838;2022-09-13T13:41:37;100177.16;;;27.67;41.80
29371;BME280;16357;52.188;7.838;2022-09-13T13:46:40;100168.97;;;28.01;42.87
29371;BME280;16357;52.188;7.838;2022-09-13T14:11:29;100162.28;;;27.68;39.58
29371;BME280;16357;52.188;7.838;2022-09-13T14:14:24;100154.91;;;27.58;39.74
29371;BME280;16357;52.188;7.838;2022-09-13T14:19:46;100146.16;;;27.46;39.49
29371;BME280;16357;52.188;7.838;2022-09-13T14:22:15;100159.97;;;27.41;39.58
29371;BME280;16357;52.188;7.838;2022-09-13T14:24:46;100149.75;;;27.42;39.15
29371;BME280;16357;52.188;7.838;2022-09-13T14:27:25;100148.09;;;27.41;39.42
29371;BME280;16357;52.188;7.838;2022-09-13T14:29:55;100137.94;;;27.41;39.59
29371;BME280;16357;52.188;7.838;2022-09-13T14:32:27;100143.13;;;27.43;39.33
29371;BME280;16357;52.188;7.838;2022-09-13T14:35:06;100142.31;;;27.42;39.17
29371;BME280;16357;52.188;7.838;2022-09-13T14:37:35;100134.59;;;27.44;39.40
29371;BME280;16357;52.188;7.838;2022-09-13T14:40:22;100127.69;;;27.47;39.53
29371;BME280;16357;52.188;7.838;2022-09-13T14:42:49;100135.66;;;27.48;38.42
29371;BME280;16357;52.188;7.838;2022-09-13T14:45:29;100125.72;;;27.52;38.67
29371;BME280;16357;52.188;7.838;2022-09-13T14:48:11;100124.34;;;27.55;38.74
29371;BME280;16357;52.188;7.838;2022-09-13T14:53:23;100123.78;;;27.58;37.87
29371;BME280;16357;52.188;7.838;2022-09-13T14:55:56;100122.94;;;27.57;37.86
29371;BME280;16357;52.188;7.838;2022-09-13T14:58:30;100116.63;;;27.57;37.75
29371;BME280;16357;52.188;7.838;2022-09-13T15:01:04;100122.13;;;27.57;37.40
29371;BME280;16357;52.188;7.838;2022-09-13T15:03:33;100128.47;;;27.57;37.30
29371;BME280;16357;52.188;7.838;2022-09-13T15:06:01;100122.94;;;27.57;37.23
29371;BME280;16357;52.188;7.838;2022-09-13T15:11:05;100123.19;;;27.61;37.68
29371;BME280;16357;52.188;7.838;2022-09-13T15:13:33;100136.13;;;27.66;36.95
29371;BME280;16357;52.188;7.838;2022-09-13T15:15:59;100123.72;;;27.68;36.63
29371;BME280;16357;52.188;7.838;2022-09-13T15:18:31;100123.13;;;27.71;36.95
29371;BME280;16357;52.188;7.838;2022-09-13T15:21:16;100122.84;;;27.73;36.67
29371;BME280;16357;52.188;7.838;2022-09-13T15:23:48;100132.75;;;27.74;36.60
29371;BME280;16357;52.188;7.838;2022-09-13T15:26:21;100124.75;;;27.72;36.36
29371;BME280;16357;52.188;7.838;2022-09-13T15:28:54;100122.31;;;27.71;35.81
29371;BME280;16357;52.188;7.838;2022-09-13T15:31:30;100127.00;;;27.70;36.26
29371;BME280;16357;52.188;7.838;2022-09-13T15:36:45;100132.81;;;27.64;35.37
29371;BME280;16357;52.188;7.838;2022-09-13T15:39:17;100129.28;;;27.58;35.47
29371;BME280;16357;52.188;7.838;2022-09-13T15:41:53;100139.78;;;27.51;35.75
29371;BME280;16357;52.188;7.838;2022-09-13T15:44:20;100143.44;;;27.41;36.14
29371;BME280;16357;52.188;7.838;2022-09-13T15:46:52;100141.53;;;27.31;35.97
29371;BME280;16357;52.188;7.838;2022-09-13T15:49:21;100131.97;;;27.19;36.33
29371;BME280;16357;52.188;7.838;2022-09-13T15:52:02;100135.84;;;27.07;36.35
29371;BME280;16357;52.188;7.838;2022-09-13T15:54:35;100132.00;;;26.98;36.56
29371;BME280;16357;52.188;7.838;2022-09-13T15:57:06;100136.44;;;26.89;36.88
29371;BME280;16357;52.188;7.838;2022-09-13T15:59:33;100144.16;;;26.82;36.84
29371;BME280;16357;52.188;7.838;2022-09-13T16:02:07;100136.19;;;26.75;36.48
29371;BME280;16357;52.188;7.838;2022-09-13T16:04:39;100135.38;;;26.69;36.72
29371;BME280;16357;52.188;7.838;2022-09-13T16:07:07;100137.31;;;26.64;36.56
29371;BME280;16357;52.188;7.838;2022-09-13T16:09:33;100125.50;;;26.58;37.04
29371;BME280;16357;52.188;7.838;2022-09-13T16:12:00;100129.38;;;26.52;37.13